Time;durP1;ratioP1;P1;durP2;ratioP2;P2;SDS_P1;SDS_P2;PMS_P1;PMS_P2;Temp;Humidity;BMP_temperature;BMP_pressure;BME280_temperature;BME280_humidity;BME280_pressure;Samples;Min_cycle;Max_cycle;Signal;HPM_P1;HPM_P2
2022/01/03 00:01:22;;;;;;;4.45;1.33;;;8.20;99.90;;;;;;5075058;28;19916;-82
2022/01/03 00:03:48;;;;;;;3.63;0.30;;;8.20;99.90;;;;;;5076381;28;20036;-84
2022/01/03 00:06:15;;;;;;;4.95;0.98;;;8.20;99.90;;;;;;5075055;28;20032;-84
2022/01/03 00:08:42;;;;;;;5.90;0.90;;;8.30;99.90;;;;;;5092261;28;20080;-83
2022/01/03 00:11:14;;;;;;;4.72;0.80;;;8.40;99.90;;;;;;5091770;28;20036;-83
2022/01/03 00:13:45;;;;;;;4.85;0.63;;;8.40;99.90;;;;;;5075470;28;20032;-83
2022/01/03 00:16:11;;;;;;;11.60;2.50;;;8.40;99.90;;;;;;5092282;28;20040;-83
2022/01/03 00:18:38;;;;;;;4.57;0.57;;;8.50;99.90;;;;;;5092729;28;20032;-82
2022/01/03 00:21:09;;;;;;;7.47;1.27;;;8.50;99.90;;;;;;5092567;28;20061;-82
2022/01/03 00:23:38;;;;;;;4.18;1.33;;;8.60;99.90;;;;;;5093345;28;20454;-82
2022/01/03 00:26:06;;;;;;;9.93;1.40;;;8.70;99.90;;;;;;5092604;28;20040;-82
2022/01/03 00:28:51;;;;;;;10.95;2.30;;;8.70;99.90;;;;;;5093681;28;20093;-82
2022/01/03 00:31:18;;;;;;;9.82;1.48;;;8.80;99.90;;;;;;5093014;28;20055;-82
2022/01/03 00:33:50;;;;;;;6.43;2.60;;;8.80;99.90;;;;;;5093342;28;20395;-81
2022/01/03 00:36:18;;;;;;;7.80;1.17;;;8.90;99.90;;;;;;5076341;28;20051;-82
2022/01/03 00:38:43;;;;;;;6.15;1.67;;;8.90;99.90;;;;;;5092270;28;20040;-82
2022/01/03 00:41:09;;;;;;;8.70;0.68;;;9.00;99.90;;;;;;5093613;28;20047;-82
2022/01/03 00:43:34;;;;;;;4.55;0.88;;;9.00;99.90;;;;;;5092475;28;20111;-82
2022/01/03 00:46:00;;;;;;;12.27;2.97;;;9.00;99.90;;;;;;5093262;28;20115;-81
2022/01/03 00:48:26;;;;;;;6.57;1.30;;;9.10;99.90;;;;;;5092383;28;20074;-82
2022/01/03 00:50:52;;;;;;;8.70;2.92;;;9.10;99.90;;;;;;5094436;28;20040;-82
2022/01/03 00:53:19;;;;;;;10.85;2.88;;;9.10;99.90;;;;;;5076028;28;20040;-81
2022/01/03 00:56:23;;;;;;;14.85;3.30;;;9.20;99.90;;;;;;5093252;28;20135;-81
2022/01/03 00:59:09;;;;;;;10.35;2.55;;;9.30;99.90;;;;;;5039304;28;20087;-82
2022/01/03 01:01:37;;;;;;;8.40;1.45;;;9.40;99.90;;;;;;5090920;28;20105;-82
2022/01/03 01:04:06;;;;;;;8.68;1.77;;;9.40;99.90;;;;;;5076591;28;20046;-81
2022/01/03 01:06:35;;;;;;;10.25;2.22;;;9.40;99.90;;;;;;5093513;28;20036;-82
2022/01/03 01:09:03;;;;;;;23.45;4.72;;;9.50;99.90;;;;;;5093422;28;20048;-82
2022/01/03 01:11:33;;;;;;;10.70;2.22;;;9.50;99.90;;;;;;5094362;28;20040;-82
2022/01/03 01:14:01;;;;;;;10.18;2.08;;;9.50;99.90;;;;;;5080680;28;20043;-82
2022/01/03 01:16:27;;;;;;;17.38;2.33;;;9.60;99.90;;;;;;5092378;28;20052;-81
2022/01/03 01:18:53;;;;;;;13.25;1.98;;;9.60;99.90;;;;;;5077520;28;20483;-81
2022/01/03 01:21:20;;;;;;;14.85;2.28;;;9.60;99.90;;;;;;5092495;28;20086;-81
2022/01/03 01:23:49;;;;;;;6.65;1.15;;;9.60;99.90;;;;;;5077644;28;20047;-81
2022/01/03 01:29:03;;;;;;;9.20;1.85;;;9.60;99.90;;;;;;5093909;28;20040;-81
2022/01/03 01:31:32;;;;;;;12.18;2.10;;;9.60;99.90;;;;;;5075687;28;20036;-81
2022/01/03 01:34:00;;;;;;;8.27;1.73;;;9.60;99.90;;;;;;5093182;28;20097;-81
2022/01/03 01:36:27;;;;;;;14.55;2.60;;;9.60;99.90;;;;;;5093346;28;20036;-80
2022/01/03 01:38:59;;;;;;;16.08;2.97;;;9.70;99.90;;;;;;5093321;28;20044;-81
2022/01/03 01:41:27;;;;;;;15.27;2.42;;;9.70;99.90;;;;;;5093871;28;20102;-81
2022/01/03 01:43:57;;;;;;;13.70;2.60;;;9.70;99.90;;;;;;5091861;28;20123;-81
2022/01/03 01:46:24;;;;;;;9.73;2.45;;;9.70;99.90;;;;;;5093639;28;20486;-81
2022/01/03 01:48:51;;;;;;;14.13;2.63;;;9.70;99.90;;;;;;5075580;28;20043;-82
2022/01/03 01:51:20;;;;;;;10.98;2.35;;;9.70;99.90;;;;;;5096745;28;20119;-82
2022/01/03 01:53:47;;;;;;;12.40;1.90;;;9.70;99.90;;;;;;5096439;28;20123;-82
2022/01/03 01:56:17;;;;;;;12.32;2.38;;;9.70;99.90;;;;;;5080079;28;20035;-81
2022/01/03 01:58:54;;;;;;;14.65;4.38;;;9.70;99.90;;;;;;5094426;28;20609;-82
2022/01/03 02:01:21;;;;;;;10.32;1.80;;;9.70;99.90;;;;;;5076533;28;20052;-82
2022/01/03 02:03:57;;;;;;;17.05;4.10;;;9.70;99.90;;;;;;5095893;28;20036;-81
2022/01/03 02:06:43;;;;;;;10.30;2.55;;;9.80;99.90;;;;;;5096723;28;20058;-81
2022/01/03 02:09:09;;;;;;;;;;;9.70;99.90;;;;;;5097086;28;20487;-82
2022/01/03 02:11:53;;;;;;;16.95;2.67;;;9.80;99.90;;;;;;5094327;28;19923;-81
2022/01/03 02:14:21;;;;;;;12.93;3.35;;;9.80;99.90;;;;;;5096882;28;20062;-82
2022/01/03 02:16:47;;;;;;;14.75;2.95;;;9.80;99.90;;;;;;5078449;28;20036;-81
2022/01/03 02:19:13;;;;;;;16.80;3.95;;;9.70;99.90;;;;;;5096854;28;20035;-81
2022/01/03 02:21:39;;;;;;;10.77;2.72;;;9.80;99.90;;;;;;5099420;28;20094;-80
2022/01/03 02:24:05;;;;;;;18.73;3.20;;;9.80;99.90;;;;;;5083612;28;20071;-80
2022/01/03 02:26:31;;;;;;;13.82;2.55;;;9.80;99.90;;;;;;5098905;28;20090;-81
2022/01/03 02:28:57;;;;;;;18.30;3.45;;;9.80;99.90;;;;;;5098749;28;20496;-82
2022/01/03 02:31:24;;;;;;;10.80;2.17;;;9.80;99.90;;;;;;5079371;28;20031;-82
2022/01/03 02:33:50;;;;;;;20.48;5.47;;;9.80;99.90;;;;;;5081143;28;20241;-82
2022/01/03 02:36:17;;;;;;;14.73;2.75;;;9.80;99.90;;;;;;5098006;28;20063;-81
2022/01/03 02:38:43;;;;;;;13.38;2.40;;;9.80;99.90;;;;;;5097275;28;20446;-82
2022/01/03 02:41:09;;;;;;;17.55;3.30;;;9.80;99.90;;;;;;5098009;28;20047;-82
2022/01/03 02:43:35;;;;;;;18.42;2.67;;;9.80;99.90;;;;;;5080175;28;20494;-81
2022/01/03 02:46:01;;;;;;;15.05;2.40;;;9.80;99.90;;;;;;5097275;28;20055;-82
2022/01/03 02:48:26;;;;;;;16.27;2.70;;;9.80;99.90;;;;;;5079591;28;20036;-82
2022/01/03 02:50:52;;;;;;;11.35;3.20;;;9.80;99.90;;;;;;5098253;28;20031;-82
2022/01/03 02:53:19;;;;;;;18.02;4.13;;;9.80;99.90;;;;;;5080447;28;20123;-81
2022/01/03 02:55:45;;;;;;;10.38;1.52;;;9.80;99.90;;;;;;5098083;28;20119;-81
2022/01/03 02:58:10;;;;;;;22.83;3.53;;;9.80;99.90;;;;;;5096642;28;20063;-80
2022/01/03 03:00:54;;;;;;;13.90;2.70;;;9.80;99.90;;;;;;5079112;28;20035;-82
2022/01/03 03:03:21;;;;;;;13.02;3.20;;;9.80;99.90;;;;;;5095832;28;20066;-80
2022/01/03 03:05:47;;;;;;;15.70;3.72;;;9.70;99.90;;;;;;5096435;28;20063;-82
2022/01/03 03:08:14;;;;;;;13.35;2.63;;;9.70;99.90;;;;;;5096330;28;20071;-81
2022/01/03 03:10:40;;;;;;;15.68;2.83;;;9.70;99.90;;;;;;5079716;28;20463;-81
2022/01/03 03:13:06;;;;;;;11.85;2.70;;;9.70;99.90;;;;;;5079065;28;20039;-81
2022/01/03 03:15:33;;;;;;;13.05;2.50;;;9.70;99.90;;;;;;5080111;28;20085;-82
2022/01/03 03:17:59;;;;;;;14.93;3.80;;;9.70;99.90;;;;;;5096507;28;20040;-80
2022/01/03 03:20:30;;;;;;;15.43;2.83;;;9.70;99.90;;;;;;5096834;28;20040;-80
2022/01/03 03:22:58;;;;;;;15.38;3.08;;;9.70;99.90;;;;;;5096876;28;20406;-81
2022/01/03 03:25:29;;;;;;;12.45;2.63;;;9.60;99.90;;;;;;5096143;28;20047;-81
2022/01/03 03:28:01;;;;;;;17.92;2.88;;;9.70;99.90;;;;;;5097438;28;20040;-81
2022/01/03 03:30:32;;;;;;;14.18;3.38;;;9.70;99.90;;;;;;5093302;28;20123;-81
2022/01/03 03:33:06;;;;;;;17.17;4.18;;;9.70;99.90;;;;;;5098144;28;20040;-78
2022/01/03 03:35:32;;;;;;;23.85;4.68;;;9.70;99.90;;;;;;5097969;28;20028;-81
2022/01/03 03:37:57;;;;;;;15.40;2.25;;;9.60;99.90;;;;;;5114237;28;20035;-78
2022/01/03 03:40:23;;;;;;;11.82;3.33;;;9.60;99.90;;;;;;5113617;28;20055;-81
2022/01/03 03:42:49;;;;;;;18.02;2.63;;;9.60;99.90;;;;;;5113489;28;20043;-80
2022/01/03 03:45:15;;;;;;;22.17;3.72;;;9.50;99.90;;;;;;5088152;28;20040;-81
2022/01/03 03:47:41;;;;;;;19.08;4.13;;;9.50;99.90;;;;;;5086971;28;20040;-80
2022/01/03 03:50:07;;;;;;;15.57;3.00;;;9.40;99.90;;;;;;5103547;28;20097;-81
2022/01/03 03:52:32;;;;;;;12.35;3.35;;;9.40;99.90;;;;;;5084943;28;20044;-81
2022/01/03 03:54:58;;;;;;;18.90;4.30;;;9.40;99.90;;;;;;5100630;28;20039;-79
2022/01/03 03:57:24;;;;;;;15.85;3.65;;;9.40;99.90;;;;;;5084084;28;20124;-81
2022/01/03 03:59:49;;;;;;;12.95;3.35;;;9.40;99.90;;;;;;5082800;28;20131;-81
2022/01/03 04:02:15;;;;;;;18.90;3.80;;;9.40;99.90;;;;;;5099899;28;20036;-81
2022/01/03 04:04:40;;;;;;;28.15;4.05;;;9.30;99.90;;;;;;5083123;28;20179;-82
2022/01/03 04:07:07;;;;;;;20.02;5.18;;;9.40;99.90;;;;;;5100289;28;20036;-81
2022/01/03 04:09:33;;;;;;;21.10;4.10;;;9.40;99.90;;;;;;5099640;28;20040;-80
2022/01/03 04:11:58;;;;;;;20.73;3.78;;;9.40;99.90;;;;;;5082140;28;20048;-81
2022/01/03 04:14:24;;;;;;;16.95;3.15;;;9.40;99.90;;;;;;5071634;28;20034;-81
2022/01/03 04:16:49;;;;;;;15.45;3.13;;;9.40;99.90;;;;;;5095859;28;20556;-79
2022/01/03 04:19:15;;;;;;;15.60;3.78;;;9.40;99.90;;;;;;5091427;28;20032;-79
2022/01/03 04:21:41;;;;;;;20.80;5.20;;;9.40;99.90;;;;;;5091732;28;20157;-79
2022/01/03 04:24:08;;;;;;;16.67;3.17;;;9.40;99.90;;;;;;5091736;28;20035;-79
2022/01/03 04:26:34;;;;;;;16.70;3.40;;;9.50;99.90;;;;;;5091167;28;20036;-80
2022/01/03 04:29:01;;;;;;;15.93;4.38;;;9.40;99.90;;;;;;5091453;28;20449;-79
2022/01/03 04:31:26;;;;;;;15.45;2.47;;;9.50;99.90;;;;;;5091287;28;20043;-79
2022/01/03 04:33:52;;;;;;;16.17;3.47;;;9.50;99.90;;;;;;5091295;28;20040;-80
2022/01/03 04:36:18;;;;;;;15.38;4.78;;;9.50;99.90;;;;;;5091748;28;20103;-79
2022/01/03 04:38:43;;;;;;;16.55;2.25;;;9.50;99.90;;;;;;5091803;28;20047;-80
2022/01/03 04:41:10;;;;;;;19.85;4.68;;;9.50;99.90;;;;;;5092293;28;20051;-79
2022/01/03 04:43:36;;;;;;;17.95;4.75;;;9.60;99.90;;;;;;5092386;28;20127;-79
2022/01/03 04:46:02;;;;;;;16.90;4.13;;;9.60;99.90;;;;;;5092220;28;20122;-80
2022/01/03 04:48:28;;;;;;;19.92;3.33;;;9.70;99.90;;;;;;5074592;28;20564;-80
2022/01/03 04:50:53;;;;;;;15.77;4.65;;;9.70;99.90;;;;;;5075034;28;20063;-80
2022/01/03 04:53:25;;;;;;;15.98;3.50;;;9.70;99.90;;;;;;5074585;28;20075;-80
2022/01/03 04:55:50;;;;;;;13.77;2.95;;;9.70;99.90;;;;;;5074851;28;20109;-79
2022/01/03 04:58:16;;;;;;;14.98;4.15;;;9.70;99.90;;;;;;5091268;28;20491;-79
2022/01/03 05:00:42;;;;;;;22.27;3.85;;;9.70;99.90;;;;;;5091571;28;20456;-80
2022/01/03 05:03:07;;;;;;;26.92;5.28;;;9.70;99.90;;;;;;5091664;28;20070;-81
2022/01/03 05:05:33;;;;;;;18.95;4.22;;;9.80;99.90;;;;;;5090781;28;20064;-80
2022/01/03 05:07:58;;;;;;;23.65;5.25;;;9.80;99.90;;;;;;5074163;28;20040;-79
2022/01/03 05:10:24;;;;;;;16.90;3.92;;;9.80;99.90;;;;;;5091481;28;20040;-80
2022/01/03 05:12:49;;;;;;;19.20;4.40;;;9.80;99.90;;;;;;5091132;28;20078;-80
2022/01/03 05:15:15;;;;;;;19.13;5.25;;;9.80;99.90;;;;;;5091399;28;20035;-80
2022/01/03 05:17:40;;;;;;;19.38;4.68;;;9.80;99.90;;;;;;5091474;28;20040;-80
2022/01/03 05:20:06;;;;;;;31.98;5.43;;;9.70;99.90;;;;;;5091438;28;20067;-82
2022/01/03 05:22:32;;;;;;;13.27;4.35;;;9.70;99.90;;;;;;5090605;28;20044;-79
2022/01/03 05:24:57;;;;;;;13.88;3.63;;;9.70;99.90;;;;;;5090968;28;20040;-80
2022/01/03 05:27:23;;;;;;;16.90;4.50;;;9.70;99.90;;;;;;5091508;28;20354;-81
2022/01/03 05:29:49;;;;;;;17.80;3.42;;;9.70;99.90;;;;;;5091127;28;20040;-80
2022/01/03 05:32:14;;;;;;;15.88;4.18;;;9.70;99.90;;;;;;5091214;28;20123;-79
2022/01/03 05:34:40;;;;;;;17.00;3.58;;;9.70;99.90;;;;;;5091358;28;20436;-79
2022/01/03 05:37:05;;;;;;;14.15;4.30;;;9.80;99.90;;;;;;5090861;28;20505;-79
2022/01/03 05:39:31;;;;;;;19.48;4.30;;;9.80;99.90;;;;;;5090318;28;20043;-80
2022/01/03 05:41:57;;;;;;;18.90;4.40;;;9.80;99.90;;;;;;5091163;28;20066;-81
2022/01/03 05:44:22;;;;;;;21.40;4.70;;;9.70;99.90;;;;;;5090817;28;20402;-79
2022/01/03 05:46:49;;;;;;;24.48;4.90;;;9.70;99.90;;;;;;5090816;28;20044;-79
2022/01/03 05:49:15;;;;;;;20.83;7.00;;;9.70;99.90;;;;;;5090634;28;20044;-80
2022/01/03 05:51:40;;;;;;;16.58;4.43;;;9.70;99.90;;;;;;5090565;28;20367;-80
2022/01/03 05:54:06;;;;;;;15.25;3.97;;;9.70;99.90;;;;;;5090778;28;20067;-80
2022/01/03 05:56:31;;;;;;;17.50;5.15;;;9.70;99.90;;;;;;5074329;28;20044;-80
2022/01/03 05:58:57;;;;;;;18.35;4.13;;;9.70;99.90;;;;;;5090817;28;20078;-80
2022/01/03 06:01:24;;;;;;;15.18;4.30;;;9.70;99.90;;;;;;5091120;28;20145;-80
2022/01/03 06:03:59;;;;;;;15.02;3.90;;;9.70;99.90;;;;;;5090828;28;20083;-80
2022/01/03 06:09:11;;;;;;;18.13;3.50;;;9.80;99.90;;;;;;5090838;28;20503;-80
2022/01/03 06:11:36;;;;;;;26.83;6.70;;;9.80;99.90;;;;;;5090747;28;20118;-79
2022/01/03 06:14:02;;;;;;;22.42;5.28;;;9.80;99.90;;;;;;5091421;28;20117;-79
2022/01/03 06:16:28;;;;;;;13.90;3.95;;;9.80;99.90;;;;;;5090126;28;20151;-80
2022/01/03 06:18:53;;;;;;;18.73;4.40;;;9.80;99.90;;;;;;5091190;28;20092;-80
2022/01/03 06:21:19;;;;;;;18.48;4.55;;;9.70;99.90;;;;;;5090737;28;20031;-80
2022/01/03 06:23:46;;;;;;;27.25;5.35;;;9.70;99.90;;;;;;5090742;28;20082;-79
2022/01/03 06:26:12;;;;;;;26.63;5.38;;;9.70;99.90;;;;;;5090528;28;20048;-80
2022/01/03 06:28:37;;;;;;;16.00;3.70;;;9.70;99.90;;;;;;5074264;28;20051;-81
2022/01/03 06:31:03;;;;;;;26.45;5.03;;;9.70;99.90;;;;;;5090386;28;20032;-80
2022/01/03 06:33:28;;;;;;;26.45;5.10;;;9.70;99.90;;;;;;5090573;28;20086;-79
2022/01/03 06:35:54;;;;;;;17.20;4.45;;;9.70;99.90;;;;;;5091265;28;20521;-81
2022/01/03 06:38:19;;;;;;;19.45;4.32;;;9.70;99.90;;;;;;5094065;28;20040;-80
2022/01/03 06:40:45;;;;;;;17.10;2.95;;;9.70;99.90;;;;;;5093929;28;20051;-80
2022/01/03 06:43:10;;;;;;;20.70;4.40;;;9.70;99.90;;;;;;5084927;28;20036;-79
2022/01/03 06:45:36;;;;;;;16.10;4.07;;;9.70;99.90;;;;;;5108490;28;20440;-83
2022/01/03 06:48:02;;;;;;;29.20;5.97;;;9.70;99.90;;;;;;5107427;28;20812;-81
2022/01/03 06:50:31;;;;;;;18.52;4.25;;;9.60;99.90;;;;;;5092749;28;20036;-80
2022/01/03 06:52:57;;;;;;;17.98;3.85;;;9.70;99.90;;;;;;5108496;28;20032;-80
2022/01/03 06:55:23;;;;;;;24.00;4.50;;;9.60;99.90;;;;;;5092102;28;20037;-81
2022/01/03 06:57:49;;;;;;;20.75;4.80;;;9.60;99.90;;;;;;5108147;28;20093;-80
2022/01/03 07:00:15;;;;;;;14.77;4.07;;;9.60;99.90;;;;;;5103261;28;20073;-81
2022/01/03 07:02:42;;;;;;;19.95;4.55;;;9.60;99.90;;;;;;5079102;28;20051;-81
2022/01/03 07:05:12;;;;;;;19.02;5.28;;;9.60;99.90;;;;;;5095427;28;20039;-79
2022/01/03 07:07:38;;;;;;;22.35;4.57;;;9.60;99.90;;;;;;5095622;28;20387;-80
2022/01/03 07:10:04;;;;;;;23.02;4.03;;;9.60;99.90;;;;;;5096067;28;20032;-80
2022/01/03 07:12:30;;;;;;;18.58;4.93;;;9.60;99.90;;;;;;5097085;28;20476;-80
2022/01/03 07:20:09;;;;;;;22.92;4.68;;;9.60;99.90;;;;;;5094749;28;20083;-80
2022/01/03 07:22:39;;;;;;;20.70;3.88;;;9.60;99.90;;;;;;5093818;28;20059;-80
2022/01/03 07:25:09;;;;;;;20.77;5.35;;;9.60;99.90;;;;;;5094422;28;20114;-80
2022/01/03 07:27:35;;;;;;;27.70;5.18;;;9.60;99.90;;;;;;5077565;28;20455;-80
2022/01/03 07:30:01;;;;;;;19.55;4.35;;;9.70;99.90;;;;;;5094109;28;20075;-80
2022/01/03 07:32:26;;;;;;;16.33;4.15;;;9.60;99.90;;;;;;5094635;28;20047;-79
2022/01/03 07:34:52;;;;;;;20.85;4.43;;;9.70;99.90;;;;;;5093611;28;20123;-81
2022/01/03 07:37:18;;;;;;;23.08;5.28;;;9.70;99.90;;;;;;5094243;28;20084;-80
2022/01/03 07:39:43;;;;;;;19.10;4.13;;;9.70;99.90;;;;;;5093572;28;20047;-80
2022/01/03 07:42:09;;;;;;;12.85;4.13;;;9.60;99.90;;;;;;5093204;28;20032;-80
2022/01/03 07:44:34;;;;;;;16.30;4.20;;;9.60;99.90;;;;;;5093708;28;20089;-79
2022/01/03 07:47:00;;;;;;;20.67;3.83;;;9.60;99.90;;;;;;5093030;28;20051;-79
2022/01/03 07:49:26;;;;;;;15.30;4.03;;;9.60;99.90;;;;;;5092980;28;20394;-79
2022/01/03 07:51:51;;;;;;;17.48;4.07;;;9.60;99.90;;;;;;5093161;28;20103;-79
2022/01/03 07:54:17;;;;;;;20.08;5.00;;;9.60;99.90;;;;;;5092735;28;20040;-79
2022/01/03 07:56:43;;;;;;;20.70;4.10;;;9.60;99.90;;;;;;5075383;28;20035;-82
2022/01/03 07:59:08;;;;;;;25.90;5.07;;;9.60;99.90;;;;;;5092879;28;20139;-80
2022/01/03 08:01:34;;;;;;;22.55;5.72;;;9.60;99.90;;;;;;5093100;28;20043;-80
2022/01/03 08:04:00;;;;;;;16.00;4.60;;;9.60;99.90;;;;;;5092684;28;20479;-80
2022/01/03 08:06:25;;;;;;;23.02;3.72;;;9.60;99.90;;;;;;5092239;28;20410;-82
2022/01/03 08:08:51;;;;;;;21.08;4.15;;;9.60;99.90;;;;;;5092743;28;20044;-81
2022/01/03 08:11:16;;;;;;;19.05;4.10;;;9.60;99.90;;;;;;5092273;28;20044;-82
2022/01/03 08:13:42;;;;;;;28.10;6.07;;;9.70;99.90;;;;;;5092661;28;20092;-81
2022/01/03 08:16:08;;;;;;;23.77;5.35;;;9.70;99.90;;;;;;5091935;28;20044;-83
2022/01/03 08:18:34;;;;;;;22.23;5.10;;;9.70;99.90;;;;;;5092160;28;20048;-82
2022/01/03 08:21:00;;;;;;;28.15;5.75;;;9.70;99.90;;;;;;5092411;28;20565;-81
2022/01/03 08:23:25;;;;;;;21.63;4.70;;;9.70;99.90;;;;;;5075088;28;20051;-80
2022/01/03 08:25:51;;;;;;;22.52;4.28;;;9.80;99.90;;;;;;5092528;28;20044;-81
2022/01/03 08:28:17;;;;;;;20.30;4.45;;;9.80;99.90;;;;;;5075731;28;20036;-80
2022/01/03 08:30:43;;;;;;;21.88;4.22;;;9.80;99.90;;;;;;5091434;28;20487;-80
2022/01/03 08:33:09;;;;;;;18.17;4.38;;;9.90;99.90;;;;;;5091619;28;20036;-80
2022/01/03 08:35:35;;;;;;;21.58;3.45;;;9.90;99.90;;;;;;5092162;28;20057;-80
2022/01/03 08:38:01;;;;;;;13.63;3.15;;;9.90;99.90;;;;;;5091937;28;20054;-80
2022/01/03 08:40:27;;;;;;;14.05;4.13;;;10.00;99.90;;;;;;5092098;28;20052;-79
2022/01/03 08:42:52;;;;;;;18.92;4.35;;;10.00;99.90;;;;;;5092074;28;20040;-80
2022/01/03 08:45:19;;;;;;;26.65;4.57;;;10.00;99.90;;;;;;5091902;28;20052;-81
2022/01/03 08:47:46;;;;;;;22.75;4.50;;;10.00;99.90;;;;;;5074698;28;20531;-80
2022/01/03 08:50:12;;;;;;;12.73;3.88;;;10.00;99.90;;;;;;5090822;28;20070;-82
2022/01/03 08:52:38;;;;;;;25.38;5.50;;;10.00;99.90;;;;;;5091796;28;20090;-80
2022/01/03 08:55:04;;;;;;;26.40;4.43;;;10.10;99.90;;;;;;5091301;28;20047;-81
2022/01/03 08:57:30;;;;;;;17.65;3.88;;;10.10;99.90;;;;;;5091496;28;20082;-81
2022/01/03 08:59:56;;;;;;;24.00;4.55;;;10.10;99.90;;;;;;5091335;28;20044;-81
2022/01/03 09:02:22;;;;;;;22.73;3.42;;;10.10;99.90;;;;;;5091324;28;20047;-81
2022/01/03 09:04:47;;;;;;;14.88;3.50;;;10.20;99.90;;;;;;5091128;28;20058;-80
2022/01/03 09:07:13;;;;;;;19.40;4.93;;;10.20;99.90;;;;;;5091450;28;20035;-81
2022/01/03 09:09:39;;;;;;;17.15;3.25;;;10.20;99.90;;;;;;5091222;28;20048;-80
2022/01/03 09:12:07;;;;;;;20.20;3.80;;;10.20;99.90;;;;;;5090888;28;20040;-80
2022/01/03 09:14:34;;;;;;;17.88;3.85;;;10.20;99.90;;;;;;5090691;28;20032;-80
2022/01/03 09:17:00;;;;;;;23.63;4.70;;;10.20;99.90;;;;;;5090739;28;20074;-79
2022/01/03 09:19:27;;;;;;;17.50;3.92;;;10.20;99.90;;;;;;5091108;28;20044;-80
2022/01/03 09:22:00;;;;;;;24.95;4.50;;;10.30;99.90;;;;;;5074266;28;20046;-83
2022/01/03 09:24:44;;;;;;;24.15;4.40;;;10.30;99.90;;;;;;5093477;28;20080;-81
2022/01/03 09:29:57;;;;;;;13.55;3.22;;;10.30;99.90;;;;;;5072340;28;20045;-81
2022/01/03 09:32:22;;;;;;;16.17;3.47;;;10.30;99.90;;;;;;5071774;28;20041;-81
2022/01/03 09:34:48;;;;;;;16.35;3.88;;;10.30;99.90;;;;;;5078478;28;20109;-80
2022/01/03 09:37:19;;;;;;;18.73;2.95;;;10.30;99.90;;;;;;5090516;28;20046;-82
2022/01/03 09:39:46;;;;;;;13.50;3.55;;;10.30;99.90;;;;;;5091309;28;20032;-80
2022/01/03 09:42:14;;;;;;;13.40;3.33;;;10.30;99.90;;;;;;5090506;28;20036;-81
2022/01/03 09:44:44;;;;;;;16.75;3.80;;;10.30;99.90;;;;;;5090947;28;20044;-82
2022/01/03 09:47:14;;;;;;;16.63;2.80;;;10.30;99.90;;;;;;5091832;28;20036;-81
2022/01/03 09:49:40;;;;;;;18.42;3.63;;;10.30;99.90;;;;;;5090758;28;20465;-80
2022/01/03 09:52:07;;;;;;;14.75;3.33;;;10.40;99.90;;;;;;5091323;28;20079;-80
2022/01/03 09:54:35;;;;;;;22.50;4.85;;;10.40;99.90;;;;;;5090724;28;20411;-81
2022/01/03 09:57:03;;;;;;;18.25;3.80;;;10.40;99.90;;;;;;5090662;28;20122;-80
2022/01/03 09:59:29;;;;;;;27.45;3.63;;;10.40;99.90;;;;;;5091232;28;20076;-80
2022/01/03 10:01:56;;;;;;;17.48;3.72;;;10.40;99.90;;;;;;5091133;28;20051;-80
2022/01/03 10:04:22;;;;;;;15.88;4.05;;;10.40;99.90;;;;;;5090764;28;20052;-81
2022/01/03 10:06:48;;;;;;;13.07;4.60;;;10.40;99.90;;;;;;5090289;28;20452;-80
2022/01/03 10:09:14;;;;;;;24.45;4.63;;;10.40;99.90;;;;;;5090397;28;20086;-80
2022/01/03 10:11:40;;;;;;;123.57;69.60;;;10.40;99.90;;;;;;5093964;28;20092;-81
2022/01/03 10:14:06;;;;;;;35.72;9.48;;;10.40;99.90;;;;;;5094517;28;20387;-79
2022/01/03 10:16:31;;;;;;;57.85;36.70;;;10.40;99.90;;;;;;5094233;28;20047;-80
2022/01/03 10:18:58;;;;;;;20.38;4.75;;;10.40;99.90;;;;;;5094177;28;20024;-79
2022/01/03 10:21:46;;;;;;;16.10;3.83;;;10.50;99.90;;;;;;5094198;28;20044;-79
2022/01/03 10:24:14;;;;;;;15.52;4.28;;;10.50;99.90;;;;;;5093875;28;20109;-80
2022/01/03 10:26:42;;;;;;;16.45;3.55;;;10.50;99.90;;;;;;5093550;28;20048;-80
2022/01/03 10:29:13;;;;;;;19.88;3.45;;;10.50;99.90;;;;;;5094714;28;20062;-81
2022/01/03 10:31:41;;;;;;;19.58;4.85;;;10.50;99.90;;;;;;5081416;28;20112;-81
2022/01/03 10:34:12;;;;;;;11.68;3.30;;;10.50;99.90;;;;;;5087756;28;20407;-81
2022/01/03 10:36:39;;;;;;;18.90;3.05;;;10.60;99.90;;;;;;5094756;28;20111;-79
2022/01/03 10:39:15;;;;;;;14.88;4.15;;;10.60;99.90;;;;;;5076850;28;20039;-80
2022/01/03 10:41:42;;;;;;;25.98;4.32;;;10.60;99.90;;;;;;5093584;28;20056;-81
2022/01/03 10:44:09;;;;;;;19.33;4.18;;;10.60;99.90;;;;;;5093815;28;20498;-80
2022/01/03 10:46:36;;;;;;;18.00;3.83;;;10.60;99.90;;;;;;5094163;28;20123;-82
2022/01/03 10:49:06;;;;;;;14.30;3.90;;;10.60;99.90;;;;;;5094267;28;20154;-81
2022/01/03 10:51:32;;;;;;;18.70;4.65;;;10.60;99.90;;;;;;5077027;28;20414;-80
2022/01/03 10:53:58;;;;;;;13.73;5.55;;;10.60;99.90;;;;;;5093385;28;20040;-81
2022/01/03 10:56:24;;;;;;;27.10;5.50;;;10.60;99.90;;;;;;5093354;28;20036;-81
2022/01/03 10:58:51;;;;;;;15.30;3.97;;;10.60;99.90;;;;;;5093362;28;20387;-79
2022/01/03 11:01:28;;;;;;;19.08;4.55;;;10.60;99.90;;;;;;5094161;28;20043;-81
2022/01/03 11:03:56;;;;;;;14.57;3.42;;;10.60;99.90;;;;;;5076532;28;20075;-81
2022/01/03 11:11:48;;;;;;;14.23;4.18;;;10.70;99.90;;;;;;5093295;28;20461;-81
2022/01/03 11:14:42;;;;;;;21.67;4.07;;;10.70;99.90;;;;;;5086301;28;20051;-80
2022/01/03 11:17:29;;;;;;;16.40;3.70;;;10.70;99.90;;;;;;5093203;28;20123;-80
2022/01/03 11:19:59;;;;;;;15.70;3.72;;;10.80;99.90;;;;;;5093252;28;20044;-80
2022/01/03 11:22:37;;;;;;;12.45;2.75;;;10.80;99.90;;;;;;5093039;28;20040;-81
2022/01/03 11:25:05;;;;;;;14.45;3.20;;;10.90;99.90;;;;;;5093222;28;20076;-80
2022/01/03 11:27:31;;;;;;;121.40;73.35;;;10.90;99.90;;;;;;5093234;28;20036;-80
2022/01/03 11:29:58;;;;;;;17.65;3.90;;;10.90;99.90;;;;;;5093474;28;20035;-81
2022/01/03 11:32:23;;;;;;;19.88;4.40;;;11.00;99.90;;;;;;5093001;28;20048;-81
2022/01/03 11:34:51;;;;;;;31.92;14.43;;;11.00;99.90;;;;;;5093317;28;20042;-81
2022/01/03 11:37:16;;;;;;;10.48;2.83;;;11.00;99.90;;;;;;5076425;28;20036;-82
2022/01/03 11:39:45;;;;;;;18.00;5.45;;;11.00;99.90;;;;;;5093071;28;20051;-80
2022/01/03 11:42:12;;;;;;;12.98;2.60;;;11.00;99.90;;;;;;5093215;28;20032;-79
2022/01/03 11:44:39;;;;;;;19.45;3.95;;;11.00;99.90;;;;;;5093283;28;20079;-80
2022/01/03 11:47:08;;;;;;;16.65;3.53;;;11.00;99.90;;;;;;5093365;28;20517;-81
2022/01/03 11:49:36;;;;;;;17.10;4.78;;;11.10;99.90;;;;;;5092617;28;20059;-81
2022/01/03 11:52:08;;;;;;;20.35;4.00;;;11.10;99.90;;;;;;5093490;28;20085;-81
2022/01/03 11:54:35;;;;;;;17.17;3.47;;;11.00;99.90;;;;;;5075972;28;20054;-80
2022/01/03 11:57:17;;;;;;;26.20;11.48;;;11.00;99.90;;;;;;5094449;28;20040;-81
2022/01/03 12:05:45;;;;;;;17.90;2.70;;;11.10;99.90;;;;;;5093613;28;20359;-79
2022/01/03 12:08:26;;;;;;;12.77;3.38;;;11.20;99.90;;;;;;5095452;28;20052;-81
2022/01/03 12:10:52;;;;;;;8.70;2.20;;;11.20;99.90;;;;;;5107063;28;20039;-83
2022/01/03 12:13:21;;;;;;;11.90;2.95;;;11.20;99.90;;;;;;5117357;28;20054;-81
2022/01/03 12:16:03;;;;;;;15.60;3.05;;;11.10;99.90;;;;;;5117068;28;20064;-82
2022/01/03 12:18:30;;;;;;;15.90;3.47;;;11.10;99.90;;;;;;5079659;28;20037;-82
2022/01/03 12:20:56;;;;;;;11.18;3.28;;;11.20;99.90;;;;;;5107701;28;20032;-81
2022/01/03 12:23:54;;;;;;;9.55;2.90;;;11.10;99.90;;;;;;5116643;28;20027;-82
2022/01/03 12:26:23;;;;;;;10.45;2.53;;;11.20;99.90;;;;;;5056123;28;20122;-85
2022/01/03 12:29:09;;;;;;;13.90;3.58;;;11.30;99.90;;;;;;5103048;28;20096;-82
2022/01/03 12:32:08;;;;;;;18.05;4.15;;;11.40;99.90;;;;;;5101047;28;20039;-82
2022/01/03 12:34:34;;;;;;;10.15;3.58;;;11.30;99.90;;;;;;5096976;28;20055;-82
2022/01/03 12:37:33;;;;;;;14.85;3.00;;;11.30;99.90;;;;;;5098277;28;20028;-82
2022/01/03 12:40:02;;;;;;;16.77;3.58;;;11.30;99.90;;;;;;5023438;28;20367;-80
2022/01/03 12:42:52;;;;;;;12.65;4.10;;;11.30;99.90;;;;;;5073246;28;20161;-83
2022/01/03 12:45:30;;;;;;;26.60;8.18;;;11.30;99.90;;;;;;5081134;28;20040;-82
2022/01/03 12:48:10;;;;;;;23.55;8.70;;;11.40;99.90;;;;;;5097634;28;20051;-81
2022/01/03 12:50:42;;;;;;;20.90;4.00;;;11.60;99.90;;;;;;5094910;28;20036;-82
2022/01/03 12:53:10;;;;;;;16.70;5.50;;;11.80;99.90;;;;;;5080196;28;20039;-81
2022/01/03 12:55:38;;;;;;;12.63;4.13;;;11.90;99.90;;;;;;5095352;28;20082;-82
2022/01/03 12:58:13;;;;;;;18.65;4.22;;;12.00;99.90;;;;;;5098362;28;20058;-82
2022/01/03 13:00:57;;;;;;;17.60;2.58;;;11.90;99.90;;;;;;5095957;28;20097;-81
2022/01/03 13:03:30;;;;;;;15.00;5.10;;;11.70;99.90;;;;;;5078613;28;20133;-82
2022/01/03 13:06:23;;;;;;;14.57;3.47;;;11.70;99.90;;;;;;5099399;28;20042;-80
2022/01/03 13:08:55;;;;;;;17.42;3.97;;;11.60;99.90;;;;;;5111462;28;20054;-81
2022/01/03 13:11:25;;;;;;;19.13;3.92;;;11.60;99.90;;;;;;5111099;28;20055;-81
2022/01/03 13:13:52;;;;;;;26.38;4.65;;;11.50;99.90;;;;;;5110173;28;20048;-82
2022/01/03 13:16:29;;;;;;;14.25;3.30;;;11.40;99.90;;;;;;5109574;28;20043;-82